Time;durP1;ratioP1;P1;durP2;ratioP2;P2;SDS_P1;SDS_P2;PMS_P1;PMS_P2;Temp;Humidity;BMP_temperature;BMP_pressure;BME280_temperature;BME280_humidity;BME280_pressure;Samples;Min_cycle;Max_cycle;Signal;HPM_P1;HPM_P2
2022/07/13 00:02:26;;;;;;;3.85;2.50;;;14.50;99.90;;;;;;5025524;28;20923;-82
2022/07/13 00:04:51;;;;;;;4.35;2.20;;;14.50;99.90;;;;;;5025527;28;20767;-83
2022/07/13 00:07:17;;;;;;;3.47;2.25;;;14.60;99.90;;;;;;5025710;28;20414;-82
2022/07/13 00:09:43;;;;;;;4.53;2.40;;;14.60;99.90;;;;;;5025929;28;20397;-82
2022/07/13 00:12:08;;;;;;;2.78;2.25;;;14.60;99.90;;;;;;5025751;28;20387;-82
2022/07/13 00:14:34;;;;;;;5.23;2.40;;;14.60;99.90;;;;;;5025968;28;20443;-83
2022/07/13 00:17:00;;;;;;;3.53;2.10;;;14.70;99.90;;;;;;5027939;28;21270;-82
2022/07/13 00:19:25;;;;;;;3.35;2.10;;;14.70;99.90;;;;;;5028674;28;20399;-82
2022/07/13 00:21:52;;;;;;;3.17;2.30;;;14.80;99.90;;;;;;5023954;28;20406;-82
2022/07/13 00:24:18;;;;;;;5.13;2.50;;;14.80;99.90;;;;;;5026207;28;20385;-82
2022/07/13 00:26:44;;;;;;;4.18;2.45;;;14.90;99.90;;;;;;5026711;28;21132;-82
2022/07/13 00:29:09;;;;;;;2.93;2.10;;;14.90;99.90;;;;;;5025964;28;20393;-83
2022/07/13 00:31:35;;;;;;;3.57;2.10;;;14.90;99.90;;;;;;5034438;28;20392;-83
2022/07/13 00:34:01;;;;;;;7.20;2.70;;;15.00;99.90;;;;;;5025835;28;20853;-83
2022/07/13 00:36:26;;;;;;;3.30;1.93;;;15.00;99.90;;;;;;5024281;28;20404;-83
2022/07/13 00:38:52;;;;;;;7.13;2.30;;;15.10;99.90;;;;;;5030260;28;20808;-83
2022/07/13 00:41:17;;;;;;;4.67;2.07;;;15.20;99.90;;;;;;5025395;28;20373;-83
2022/07/13 00:43:43;;;;;;;2.50;2.10;;;15.20;99.90;;;;;;5022053;28;20754;-82
2022/07/13 00:46:09;;;;;;;5.13;2.40;;;15.20;99.90;;;;;;5023151;28;20385;-82
2022/07/13 00:48:36;;;;;;;3.00;1.97;;;15.20;99.90;;;;;;5023744;28;20794;-82
2022/07/13 00:51:02;;;;;;;3.83;2.28;;;15.30;99.90;;;;;;5023374;28;20390;-82
2022/07/13 00:53:28;;;;;;;3.80;2.25;;;15.30;99.90;;;;;;5022084;28;20393;-81
2022/07/13 00:55:53;;;;;;;3.42;2.13;;;15.40;99.90;;;;;;5021067;28;20374;-82
2022/07/13 00:58:19;;;;;;;4.90;2.33;;;15.40;99.90;;;;;;5022150;28;20418;-82
2022/07/13 01:00:45;;;;;;;3.15;1.95;;;15.50;99.90;;;;;;5027737;28;20401;-82
2022/07/13 01:03:11;;;;;;;2.40;2.00;;;15.60;99.90;;;;;;5032126;28;20408;-82
2022/07/13 01:05:36;;;;;;;3.90;2.33;;;15.60;99.90;;;;;;5033300;28;20380;-82
2022/07/13 01:08:04;;;;;;;3.10;2.07;;;15.50;99.90;;;;;;5032298;28;20409;-82
2022/07/13 01:10:30;;;;;;;3.33;2.10;;;15.60;99.90;;;;;;5034271;28;20388;-82
2022/07/13 01:12:55;;;;;;;2.97;2.30;;;15.60;99.90;;;;;;5032951;28;20405;-82
2022/07/13 01:15:22;;;;;;;2.38;2.10;;;15.60;99.90;;;;;;5033169;28;20389;-82
2022/07/13 01:17:48;;;;;;;4.63;2.23;;;15.70;99.90;;;;;;5031070;28;20396;-82
2022/07/13 01:20:15;;;;;;;5.60;2.10;;;15.60;99.90;;;;;;5033641;28;20385;-83
2022/07/13 01:22:50;;;;;;;3.05;2.03;;;15.70;99.90;;;;;;5033937;28;20918;-81
2022/07/13 01:25:17;;;;;;;5.18;2.50;;;15.70;99.90;;;;;;5035378;28;20459;-83
2022/07/13 01:27:45;;;;;;;4.28;2.00;;;15.70;99.90;;;;;;5033980;28;20408;-82
2022/07/13 01:30:11;;;;;;;2.40;2.00;;;15.80;99.90;;;;;;5037520;28;20389;-82
2022/07/13 01:32:49;;;;;;;2.55;2.25;;;15.80;99.90;;;;;;5035773;28;20392;-83
2022/07/13 01:35:16;;;;;;;2.38;2.00;;;15.80;99.90;;;;;;5036355;28;20898;-83
2022/07/13 01:37:43;;;;;;;2.90;2.20;;;15.80;99.90;;;;;;5036931;28;20406;-83
2022/07/13 01:40:09;;;;;;;2.42;2.00;;;15.80;99.90;;;;;;5035822;28;20520;-83
2022/07/13 01:42:43;;;;;;;2.40;2.20;;;15.90;99.90;;;;;;5035275;28;20385;-83
2022/07/13 01:45:09;;;;;;;2.95;2.10;;;15.90;99.90;;;;;;5036616;28;20393;-83
2022/07/13 01:47:43;;;;;;;2.83;2.00;;;15.90;99.90;;;;;;5035734;28;20908;-82
2022/07/13 01:50:10;;;;;;;3.30;2.13;;;15.90;99.90;;;;;;5035272;28;20428;-82
2022/07/13 01:52:37;;;;;;;3.05;2.20;;;15.90;99.90;;;;;;5035686;28;20409;-82
2022/07/13 01:55:07;;;;;;;3.13;2.17;;;15.90;99.90;;;;;;5035749;28;20406;-83
2022/07/13 01:57:33;;;;;;;3.42;1.90;;;15.90;99.90;;;;;;5035301;28;20405;-82
2022/07/13 02:00:00;;;;;;;3.23;2.20;;;16.00;99.90;;;;;;5035063;28;20389;-82
2022/07/13 02:02:26;;;;;;;3.17;2.30;;;15.90;99.90;;;;;;5034218;28;20385;-84
2022/07/13 02:04:54;;;;;;;2.60;2.15;;;16.00;99.90;;;;;;5034473;28;20474;-82
2022/07/13 02:07:20;;;;;;;3.70;2.10;;;16.00;99.90;;;;;;5031914;28;20457;-82
2022/07/13 02:09:46;;;;;;;3.13;2.13;;;16.10;99.90;;;;;;5033733;28;20389;-82
2022/07/13 02:12:11;;;;;;;3.03;2.20;;;16.00;99.90;;;;;;5033133;28;20393;-82
2022/07/13 02:14:37;;;;;;;2.42;2.22;;;16.00;99.90;;;;;;5032320;28;20400;-83
2022/07/13 02:17:04;;;;;;;3.13;2.10;;;16.00;99.90;;;;;;5033046;28;20465;-83
2022/07/13 02:19:29;;;;;;;2.13;1.88;;;16.00;99.90;;;;;;5029226;28;20386;-82
2022/07/13 02:21:55;;;;;;;2.20;2.00;;;16.00;99.90;;;;;;5030752;28;20384;-82
2022/07/13 02:24:21;;;;;;;2.33;2.13;;;16.00;99.90;;;;;;5031160;28;20373;-81
2022/07/13 02:26:46;;;;;;;2.17;1.90;;;16.00;99.90;;;;;;5030385;28;20413;-83
2022/07/13 02:29:12;;;;;;;2.40;2.20;;;16.00;99.90;;;;;;5031343;28;20483;-82
2022/07/13 02:31:37;;;;;;;2.63;2.07;;;16.00;99.90;;;;;;5029999;28;20392;-82
2022/07/13 02:34:03;;;;;;;3.42;2.22;;;16.00;99.90;;;;;;5030983;28;21011;-82
2022/07/13 02:36:29;;;;;;;2.10;1.90;;;16.10;99.90;;;;;;5032472;28;20891;-82
2022/07/13 02:38:54;;;;;;;2.73;2.10;;;16.10;99.90;;;;;;5032375;28;20930;-83
2022/07/13 02:41:20;;;;;;;2.60;2.40;;;16.10;99.90;;;;;;5032979;28;20393;-83
2022/07/13 02:43:45;;;;;;;2.63;2.20;;;16.10;99.90;;;;;;5033425;28;20443;-82
2022/07/13 02:46:11;;;;;;;2.20;2.00;;;16.10;99.90;;;;;;5033308;28;20374;-82
2022/07/13 02:48:37;;;;;;;2.10;1.90;;;16.10;99.90;;;;;;5032645;28;20393;-82
2022/07/13 02:51:02;;;;;;;2.20;2.00;;;16.10;99.90;;;;;;5032344;28;20879;-83
2022/07/13 02:53:28;;;;;;;3.37;2.00;;;16.10;99.90;;;;;;5032651;28;20409;-82
2022/07/13 02:55:54;;;;;;;3.00;2.23;;;16.10;99.90;;;;;;5033374;28;20443;-83
2022/07/13 02:58:19;;;;;;;2.20;2.00;;;16.10;99.90;;;;;;5032684;28;20428;-83
2022/07/13 03:00:45;;;;;;;2.03;1.77;;;16.20;99.90;;;;;;5032196;28;20412;-83
2022/07/13 03:03:12;;;;;;;3.50;2.00;;;16.10;99.90;;;;;;5034400;28;20381;-82
2022/07/13 03:05:37;;;;;;;2.17;1.98;;;16.20;99.90;;;;;;5032351;28;20878;-82
2022/07/13 03:08:03;;;;;;;2.63;2.30;;;16.10;99.90;;;;;;5032397;28;20487;-83
2022/07/13 03:10:29;;;;;;;3.35;2.20;;;16.20;99.90;;;;;;5029203;28;20599;-82
2022/07/13 03:12:55;;;;;;;2.67;2.00;;;16.10;99.90;;;;;;5034299;28;20405;-82
2022/07/13 03:15:21;;;;;;;3.33;2.43;;;16.20;99.90;;;;;;5034257;28;20389;-82
2022/07/13 03:17:46;;;;;;;2.72;2.15;;;16.20;99.90;;;;;;5034810;28;20403;-82
2022/07/13 03:20:12;;;;;;;3.53;2.40;;;16.20;99.90;;;;;;5020718;28;20402;-82
2022/07/13 03:22:38;;;;;;;2.40;2.00;;;16.20;99.90;;;;;;5018481;28;20491;-82
2022/07/13 03:25:07;;;;;;;3.10;2.10;;;16.20;99.90;;;;;;5028927;28;20548;-83
2022/07/13 03:27:33;;;;;;;31.30;4.95;;;16.20;99.90;;;;;;5034358;28;20496;-83
2022/07/13 03:29:58;;;;;;;22.33;4.93;;;16.30;99.90;;;;;;5036310;28;20823;-83
2022/07/13 03:32:24;;;;;;;9.05;3.00;;;16.30;99.90;;;;;;5028633;28;20387;-82
2022/07/13 03:34:49;;;;;;;9.27;3.10;;;16.40;99.90;;;;;;5018697;28;20801;-82
2022/07/13 03:37:15;;;;;;;9.85;2.53;;;16.40;99.90;;;;;;5017228;28;20403;-83
2022/07/13 03:39:40;;;;;;;13.07;3.60;;;16.50;99.90;;;;;;5017135;28;20399;-83
2022/07/13 03:42:06;;;;;;;8.00;3.00;;;16.50;99.90;;;;;;5014808;28;20468;-83
2022/07/13 03:44:32;;;;;;;10.87;3.37;;;16.50;99.90;;;;;;5016620;28;20391;-83
2022/07/13 03:46:58;;;;;;;11.55;3.58;;;16.50;99.90;;;;;;5034200;28;20397;-83
2022/07/13 03:49:24;;;;;;;10.13;2.45;;;16.90;99.90;;;;;;5032020;28;20388;-83
2022/07/13 03:51:50;;;;;;;7.72;2.53;;;16.60;99.90;;;;;;5033799;28;20398;-83
2022/07/13 03:54:16;;;;;;;4.10;2.40;;;16.70;99.90;;;;;;5032970;28;20389;-83
2022/07/13 03:56:42;;;;;;;8.05;2.78;;;16.70;99.90;;;;;;5034244;28;20386;-83
2022/07/13 03:59:30;;;;;;;10.15;2.80;;;16.70;99.90;;;;;;5035042;28;20721;-82
2022/07/13 04:01:55;;;;;;;4.45;2.30;;;16.80;99.90;;;;;;5031945;28;20436;-83
2022/07/13 04:04:21;;;;;;;5.30;2.30;;;16.80;99.90;;;;;;5035951;28;20879;-83
2022/07/13 04:06:47;;;;;;;5.87;2.60;;;16.90;99.90;;;;;;5036292;28;20393;-82
2022/07/13 04:09:13;;;;;;;3.90;2.27;;;16.90;99.90;;;;;;5035242;28;20397;-83
2022/07/13 04:11:39;;;;;;;6.90;2.57;;;17.10;99.90;;;;;;5037005;28;20392;-83
2022/07/13 04:14:04;;;;;;;4.83;2.50;;;17.10;99.90;;;;;;5035413;28;20386;-83
2022/07/13 04:16:30;;;;;;;8.38;3.08;;;17.20;99.90;;;;;;5037573;28;20854;-83
2022/07/13 04:18:55;;;;;;;5.03;2.83;;;17.20;99.90;;;;;;5034803;28;20397;-83
2022/07/13 04:21:21;;;;;;;7.90;3.10;;;17.30;99.90;;;;;;5035146;28;20382;-82
2022/07/13 04:23:49;;;;;;;3.80;2.40;;;17.40;99.90;;;;;;5034854;28;20974;-84
2022/07/13 04:26:14;;;;;;;6.15;2.80;;;17.50;99.90;;;;;;5036397;28;20882;-83
2022/07/13 04:28:40;;;;;;;5.32;2.50;;;17.50;99.90;;;;;;5037482;28;20385;-83
2022/07/13 04:31:06;;;;;;;9.67;2.70;;;17.60;99.90;;;;;;5036173;28;20906;-83
2022/07/13 04:33:31;;;;;;;7.88;2.88;;;17.70;99.90;;;;;;5033730;28;20876;-83
2022/07/13 04:35:57;;;;;;;4.93;2.50;;;17.80;99.90;;;;;;5034363;28;20405;-84
2022/07/13 04:38:22;;;;;;;7.65;2.65;;;17.90;99.90;;;;;;5033733;28;20491;-83
2022/07/13 04:40:48;;;;;;;6.60;2.63;;;18.00;99.90;;;;;;5036062;28;20385;-83
2022/07/13 04:43:14;;;;;;;13.97;3.70;;;17.50;99.90;;;;;;5033395;28;20385;-83
2022/07/13 04:45:39;;;;;;;4.70;2.33;;;18.00;99.90;;;;;;5036466;28;20408;-83
2022/07/13 04:48:05;;;;;;;4.20;2.30;;;18.10;99.90;;;;;;5036037;28;20493;-83
2022/07/13 04:50:31;;;;;;;5.13;2.47;;;18.20;99.90;;;;;;5037629;28;20404;-83
2022/07/13 04:52:56;;;;;;;3.23;2.30;;;18.30;99.90;;;;;;5034409;28;20474;-84
2022/07/13 04:55:22;;;;;;;4.25;2.30;;;18.30;99.90;;;;;;5033277;28;20386;-83
2022/07/13 04:57:48;;;;;;;3.65;2.53;;;18.30;99.90;;;;;;5032971;28;20401;-83
2022/07/13 05:00:14;;;;;;;4.47;2.47;;;18.30;99.90;;;;;;5032461;28;20377;-82
2022/07/13 05:02:39;;;;;;;3.42;2.40;;;18.40;99.90;;;;;;5031349;28;20444;-83
2022/07/13 05:05:06;;;;;;;2.50;1.90;;;18.50;99.90;;;;;;5032719;28;20373;-84
2022/07/13 05:07:32;;;;;;;4.15;2.08;;;18.90;99.90;;;;;;5031859;28;20405;-83
2022/07/13 05:09:57;;;;;;;3.53;2.20;;;19.10;99.90;;;;;;5031628;28;20397;-83
2022/07/13 05:12:23;;;;;;;2.40;2.10;;;18.90;99.90;;;;;;5032292;28;20389;-84
2022/07/13 05:14:49;;;;;;;11.43;3.13;;;18.90;99.90;;;;;;5031278;28;20381;-83
2022/07/13 05:17:16;;;;;;;3.87;2.13;;;19.10;99.90;;;;;;5031312;28;20393;-83
2022/07/13 05:19:42;;;;;;;2.20;2.00;;;19.20;99.90;;;;;;5032825;28;20460;-84
2022/07/13 05:22:07;;;;;;;3.08;2.28;;;19.30;99.90;;;;;;5031233;28;20914;-84
2022/07/13 05:24:33;;;;;;;5.57;2.63;;;19.40;99.90;;;;;;5031963;28;20393;-84
2022/07/13 05:26:59;;;;;;;4.32;2.00;;;19.50;99.90;;;;;;5031356;28;20406;-84
2022/07/13 05:29:24;;;;;;;3.97;1.90;;;19.50;99.90;;;;;;5033240;28;20459;-84
2022/07/13 05:31:50;;;;;;;3.38;2.00;;;19.80;99.90;;;;;;5030762;28;20393;-83
2022/07/13 05:34:15;;;;;;;3.03;1.87;;;19.90;99.90;;;;;;5032681;28;20389;-84
2022/07/13 05:36:41;;;;;;;6.88;2.60;;;20.00;99.90;;;;;;5029339;28;20378;-84
2022/07/13 05:39:08;;;;;;;7.43;2.43;;;20.30;99.90;;;;;;5031171;28;21141;-84
2022/07/13 05:41:34;;;;;;;2.88;2.20;;;20.30;99.90;;;;;;5029848;28;20749;-83
2022/07/13 05:43:59;;;;;;;3.70;2.30;;;20.90;99.90;;;;;;5030741;28;20384;-84
2022/07/13 05:46:26;;;;;;;2.83;2.00;;;20.50;99.90;;;;;;5029871;28;20480;-83
2022/07/13 05:48:52;;;;;;;4.50;2.10;;;21.20;99.90;;;;;;5031974;28;20370;-83
2022/07/13 05:51:17;;;;;;;4.75;2.00;;;20.70;99.90;;;;;;5032247;28;21020;-83
2022/07/13 05:53:43;;;;;;;4.70;2.23;;;20.80;99.90;;;;;;5031072;28;20405;-84
2022/07/13 05:56:09;;;;;;;4.10;1.83;;;21.40;99.90;;;;;;5031495;28;20462;-83
2022/07/13 05:58:35;;;;;;;2.93;1.90;;;21.10;99.90;;;;;;5033840;28;20393;-83
2022/07/13 06:01:01;;;;;;;4.15;1.90;;;21.30;99.90;;;;;;5033842;28;20441;-84
2022/07/13 06:03:27;;;;;;;2.55;1.85;;;21.30;99.90;;;;;;5033320;28;20378;-84
2022/07/13 06:05:53;;;;;;;5.10;2.15;;;21.50;99.90;;;;;;5033445;28;20401;-84
2022/07/13 06:08:18;;;;;;;3.43;2.10;;;21.60;99.90;;;;;;5028478;28;20420;-84
2022/07/13 06:10:44;;;;;;;5.07;2.03;;;21.80;99.90;;;;;;5030715;28;20496;-85
2022/07/13 06:13:10;;;;;;;6.03;2.07;;;21.90;99.90;;;;;;5035578;28;20378;-84
2022/07/13 06:15:36;;;;;;;3.05;2.08;;;22.10;99.90;;;;;;5030789;28;20739;-84
2022/07/13 06:18:02;;;;;;;4.18;2.40;;;22.20;99.90;;;;;;5030942;28;20464;-84
2022/07/13 06:20:27;;;;;;;2.87;1.97;;;22.40;99.90;;;;;;5032249;28;20385;-84
2022/07/13 06:23:11;;;;;;;3.58;2.00;;;22.50;99.90;;;;;;5030865;28;20393;-84
2022/07/13 06:25:43;;;;;;;3.42;1.90;;;22.70;99.90;;;;;;5034112;28;20429;-84
2022/07/13 06:28:09;;;;;;;4.13;2.17;;;22.90;99.90;;;;;;5029921;28;20440;-81
2022/07/13 06:30:35;;;;;;;4.50;2.10;;;23.00;99.90;;;;;;5029796;28;20678;-83
2022/07/13 06:33:02;;;;;;;2.70;2.27;;;23.10;99.90;;;;;;5028353;28;20394;-84
2022/07/13 06:35:28;;;;;;;4.90;2.20;;;23.40;99.90;;;;;;5027471;28;20385;-83
2022/07/13 06:37:54;;;;;;;4.18;2.50;;;23.50;99.90;;;;;;5022191;28;20411;-82
2022/07/13 06:40:20;;;;;;;5.57;2.25;;;23.60;99.90;;;;;;5015441;28;20397;-84
2022/07/13 06:42:46;;;;;;;2.63;1.90;;;23.70;99.90;;;;;;5015913;28;20375;-83
2022/07/13 06:45:13;;;;;;;4.47;1.92;;;;;;;;;;5011183;28;20411;-83
2022/07/13 06:47:39;;;;;;;2.42;2.00;;;23.80;99.90;;;;;;5028345;28;20446;-83
2022/07/13 06:50:06;;;;;;;4.95;2.20;;;24.00;99.90;;;;;;5028570;28;20397;-83
2022/07/13 06:52:32;;;;;;;5.05;1.90;;;24.20;99.90;;;;;;5029296;28;20444;-83
2022/07/13 06:54:58;;;;;;;8.88;2.10;;;;;;;;;;5032052;28;20424;-84
2022/07/13 06:57:24;;;;;;;4.43;2.03;;;24.90;99.90;;;;;;5014238;28;20378;-84
2022/07/13 06:59:50;;;;;;;5.57;2.47;;;24.80;99.90;;;;;;5012112;28;20418;-83
2022/07/13 07:02:15;;;;;;;6.78;2.50;;;25.10;99.90;;;;;;5013444;28;20374;-84
2022/07/13 07:04:41;;;;;;;3.75;2.10;;;25.00;99.90;;;;;;5014087;28;20381;-83
2022/07/13 07:07:08;;;;;;;2.10;1.90;;;25.00;99.90;;;;;;5012539;28;20916;-83
2022/07/13 07:09:34;;;;;;;6.60;1.80;;;24.90;99.90;;;;;;5033805;28;20378;-83
2022/07/13 07:11:59;;;;;;;6.20;2.58;;;25.00;99.90;;;;;;5032778;28;20393;-83
2022/07/13 07:14:25;;;;;;;4.22;1.95;;;25.00;99.90;;;;;;5034430;28;20373;-83
2022/07/13 07:16:51;;;;;;;5.60;2.00;;;25.20;99.90;;;;;;5019029;28;20379;-83
2022/07/13 07:19:17;;;;;;;3.70;2.08;;;25.40;99.90;;;;;;5010918;28;20782;-83
2022/07/13 07:21:43;;;;;;;4.30;2.17;;;25.50;99.90;;;;;;5011793;28;20433;-83
2022/07/13 07:24:08;;;;;;;2.95;1.92;;;25.60;99.90;;;;;;5011989;28;20419;-83
2022/07/13 07:26:34;;;;;;;4.50;2.13;;;25.80;99.90;;;;;;5012906;28;21248;-83
2022/07/13 07:29:00;;;;;;;4.27;1.70;;;25.90;99.90;;;;;;5013433;28;20376;-84
2022/07/13 07:31:25;;;;;;;3.70;1.70;;;25.90;99.90;;;;;;5011630;28;20422;-83
2022/07/13 07:33:52;;;;;;;2.03;1.80;;;25.80;99.90;;;;;;5014078;28;20391;-84
2022/07/13 07:36:18;;;;;;;1.88;1.70;;;25.70;99.90;;;;;;5011311;28;20414;-84
2022/07/13 07:38:44;;;;;;;2.45;1.90;;;26.00;99.90;;;;;;5010610;28;20398;-84
2022/07/13 07:41:11;;;;;;;3.47;2.00;;;26.20;99.90;;;;;;5009965;28;20459;-83
2022/07/13 07:43:37;;;;;;;2.10;1.70;;;26.50;99.90;;;;;;5011368;28;20387;-84
2022/07/13 07:46:03;;;;;;;4.35;2.10;;;;;;;;;;5010699;28;20399;-84
2022/07/13 07:48:29;;;;;;;3.28;1.65;;;26.90;99.90;;;;;;5013343;28;20413;-83
2022/07/13 07:50:56;;;;;;;3.45;2.00;;;;;;;;;;5013420;28;20395;-84
2022/07/13 07:53:21;;;;;;;3.75;2.28;;;27.30;99.90;;;;;;5011659;28;20402;-84
2022/07/13 07:55:47;;;;;;;5.00;2.20;;;27.30;99.90;;;;;;5011507;28;20391;-84
2022/07/13 07:58:13;;;;;;;3.30;2.00;;;27.50;99.90;;;;;;5010978;28;20406;-84
2022/07/13 08:00:43;;;;;;;4.13;1.90;;;27.80;99.90;;;;;;5009541;28;20456;-84
2022/07/13 08:03:09;;;;;;;3.90;2.27;;;28.30;99.90;;;;;;5010909;28;20383;-84
2022/07/13 08:05:36;;;;;;;2.40;1.90;;;28.20;97.50;;;;;;5010283;28;20933;-84
2022/07/13 08:08:02;;;;;;;4.07;2.10;;;;;;;;;;5009992;28;20410;-83
2022/07/13 08:10:28;;;;;;;6.45;2.22;;;;;;;;;;5010911;28;20387;-84
2022/07/13 08:12:56;;;;;;;3.75;2.03;;;28.40;97.10;;;;;;5011959;28;20409;-84
2022/07/13 08:15:22;;;;;;;3.17;2.20;;;28.40;97.00;;;;;;5011429;28;20387;-85
2022/07/13 08:17:49;;;;;;;3.63;1.90;;;;;;;;;;5012261;28;20411;-85
2022/07/13 08:20:18;;;;;;;4.25;2.05;;;;;;;;;;5011433;28;20371;-84
2022/07/13 08:22:44;;;;;;;3.67;1.88;;;;;;;;;;5012586;28;20501;-84
2022/07/13 08:25:10;;;;;;;5.07;1.73;;;;;;;;;;5011772;28;20405;-84
2022/07/13 08:27:36;;;;;;;2.65;1.63;;;;;;;;;;5012199;28;20399;-84
2022/07/13 08:30:03;;;;;;;4.28;1.73;;;;;;;;;;5012330;28;20899;-84
2022/07/13 08:32:29;;;;;;;2.63;1.77;;;;;;;;;;5010974;28;20445;-83
2022/07/13 08:40:44;;;;;;;3.70;1.88;;;;;;;;;;5009939;28;21014;-83
2022/07/13 08:43:11;;;;;;;3.53;1.60;;;;;;;;;;5001979;28;20375;-85
2022/07/13 08:45:37;;;;;;;3.65;1.60;;;;;;;;;;5013520;28;20390;-84
2022/07/13 08:48:07;;;;;;;2.17;1.70;;;;;;;;;;5010962;28;20407;-83
2022/07/13 08:50:34;;;;;;;2.88;1.50;;;;;;;;;;5010715;28;20390;-83
2022/07/13 08:53:02;;;;;;;2.83;1.80;;;29.80;92.40;;;;;;5012051;28;20379;-84
2022/07/13 08:55:28;;;;;;;5.15;2.05;;;29.60;93.30;;;;;;5011326;28;20395;-83
2022/07/13 08:57:54;;;;;;;3.40;1.70;;;29.50;93.80;;;;;;5011745;28;20408;-83
2022/07/13 09:00:21;;;;;;;3.43;1.60;;;29.60;93.70;;;;;;5010959;28;20379;-84
2022/07/13 09:02:49;;;;;;;2.70;1.45;;;29.90;93.40;;;;;;5012067;28;20380;-85
2022/07/13 09:05:19;;;;;;;3.80;1.20;;;30.10;92.90;;;;;;5010931;28;20418;-84
2022/07/13 09:08:10;;;;;;;3.03;1.30;;;30.30;92.70;;;;;;5010853;28;20813;-83
2022/07/13 09:10:55;;;;;;;2.63;1.40;;;30.20;91.40;;;;;;5010774;28;20396;-84
2022/07/13 09:13:45;;;;;;;3.55;1.23;;;30.10;92.00;;;;;;5011142;28;20402;-84
2022/07/13 09:16:26;;;;;;;3.05;1.38;;;30.30;91.50;;;;;;5010225;28;20387;-83
2022/07/13 09:18:57;;;;;;;4.28;1.40;;;30.40;90.90;;;;;;4993765;28;20936;-84
2022/07/13 09:21:24;;;;;;;3.63;1.50;;;30.80;91.10;;;;;;5019702;28;20811;-84
2022/07/13 09:23:55;;;;;;;2.42;1.63;;;31.00;91.70;;;;;;5030945;28;20438;-84
2022/07/13 09:26:23;;;;;;;3.53;1.30;;;31.20;90.30;;;;;;5030506;28;20950;-84
2022/07/13 09:28:51;;;;;;;1.60;1.10;;;31.20;90.50;;;;;;5031954;28;20377;-84
2022/07/13 09:31:18;;;;;;;2.08;1.33;;;31.20;91.10;;;;;;5029991;28;20945;-83
2022/07/13 09:33:45;;;;;;;3.70;1.42;;;31.10;89.90;;;;;;5032113;28;20459;-84
2022/07/13 09:36:16;;;;;;;2.00;1.27;;;31.20;89.60;;;;;;5032184;28;20421;-83
2022/07/13 09:38:44;;;;;;;5.30;1.60;;;31.00;88.90;;;;;;5031555;28;20441;-85
2022/07/13 09:41:22;;;;;;;3.47;1.52;;;30.80;89.70;;;;;;5031807;28;20890;-84
2022/07/13 09:46:53;;;;;;;3.70;1.60;;;31.10;91.40;;;;;;5030929;28;20408;-85
2022/07/13 09:49:46;;;;;;;2.85;1.50;;;31.20;90.10;;;;;;5030182;28;21283;-85
2022/07/13 09:52:19;;;;;;;1.90;1.30;;;31.20;90.80;;;;;;5027228;28;20401;-84
2022/07/13 09:54:51;;;;;;;2.55;1.77;;;31.30;90.50;;;;;;5029226;28;20617;-83
2022/07/13 09:57:21;;;;;;;2.60;1.33;;;31.20;89.50;;;;;;5029259;28;20405;-83
2022/07/13 09:59:49;;;;;;;4.32;1.50;;;31.30;88.60;;;;;;5027457;28;20393;-84
2022/07/13 10:02:16;;;;;;;6.20;1.73;;;31.50;90.50;;;;;;5027285;28;20908;-82
2022/07/13 10:04:42;;;;;;;4.53;1.67;;;31.70;90.70;;;;;;5026855;28;20389;-84
2022/07/13 10:07:09;;;;;;;8.47;1.90;;;31.70;88.50;;;;;;5029190;28;20381;-84
2022/07/13 10:09:38;;;;;;;2.10;1.10;;;31.60;90.00;;;;;;5029945;28;20389;-84
2022/07/13 10:12:09;;;;;;;3.42;1.27;;;31.20;88.40;;;;;;5029668;28;20389;-85
2022/07/13 10:14:36;;;;;;;1.65;1.13;;;31.20;89.90;;;;;;5029302;28;20483;-83
2022/07/13 10:17:11;;;;;;;2.92;1.45;;;31.40;89.20;;;;;;5029777;28;20437;-83
2022/07/13 10:20:04;;;;;;;4.37;1.20;;;31.70;88.70;;;;;;5029933;28;20397;-85
2022/07/13 10:22:37;;;;;;;2.40;1.45;;;31.90;87.50;;;;;;5029923;28;20389;-84
2022/07/13 10:25:02;;;;;;;4.70;1.50;;;31.70;86.20;;;;;;5028846;28;20392;-84
2022/07/13 10:27:33;;;;;;;2.17;1.60;;;31.70;86.80;;;;;;5022272;28;20402;-84
2022/07/13 10:30:24;;;;;;;6.60;2.00;;;31.50;83.60;;;;;;5018839;28;20453;-86
2022/07/13 10:32:50;;;;;;;7.40;1.47;;;31.50;82.80;;;;;;5016623;28;20390;-84
2022/07/13 10:35:17;;;;;;;11.95;2.10;;;31.50;85.70;;;;;;5019718;28;20378;-85
2022/07/13 10:38:01;;;;;;;2.92;1.40;;;31.40;84.70;;;;;;5022642;28;20415;-85
2022/07/13 10:40:31;;;;;;;3.28;1.45;;;31.50;85.40;;;;;;5021905;28;20466;-84
2022/07/13 10:42:57;;;;;;;2.50;1.50;;;31.20;85.70;;;;;;5019596;28;20384;-85
2022/07/13 10:45:44;;;;;;;3.35;1.83;;;31.10;86.30;;;;;;5023879;28;20438;-83
2022/07/13 10:48:25;;;;;;;5.30;1.50;;;30.80;82.40;;;;;;5031003;28;20394;-82
2022/07/13 10:50:57;;;;;;;5.85;1.90;;;30.60;81.60;;;;;;5013591;28;20438;-83
2022/07/13 10:53:45;;;;;;;4.15;1.50;;;30.60;83.70;;;;;;5027010;28;20382;-84
2022/07/13 10:56:18;;;;;;;6.38;1.55;;;30.60;83.20;;;;;;5016343;28;21231;-84
2022/07/13 10:58:46;;;;;;;2.87;1.50;;;30.50;81.80;;;;;;5014840;28;20418;-83
2022/07/13 11:01:30;;;;;;;6.05;1.70;;;30.20;84.40;;;;;;5021915;28;20389;-83
2022/07/13 11:03:56;;;;;;;4.97;1.50;;;30.20;84.20;;;;;;5027286;28;20387;-85
2022/07/13 11:06:23;;;;;;;5.38;1.60;;;30.20;84.10;;;;;;5013079;28;20453;-82
2022/07/13 11:09:08;;;;;;;4.80;1.48;;;30.10;83.60;;;;;;5014461;28;20386;-83
2022/07/13 11:11:33;;;;;;;1.95;1.40;;;30.00;84.20;;;;;;5023435;28;20377;-84
2022/07/13 11:13:59;;;;;;;5.03;2.00;;;29.90;85.10;;;;;;5030171;28;21603;-82
2022/07/13 11:16:48;;;;;;;4.00;1.50;;;30.10;84.80;;;;;;5015333;28;20441;-83
2022/07/13 11:19:15;;;;;;;3.10;1.52;;;30.20;86.80;;;;;;5025190;28;20390;-84
2022/07/13 11:22:10;;;;;;;3.25;1.42;;;30.40;84.50;;;;;;5029237;28;20390;-84
2022/07/13 11:27:54;;;;;;;3.13;1.50;;;30.80;84.30;;;;;;5021317;28;20804;-84
2022/07/13 11:30:28;;;;;;;5.05;1.65;;;30.80;84.50;;;;;;5015478;28;20398;-84
2022/07/13 11:32:54;;;;;;;3.05;1.63;;;31.00;85.20;;;;;;5009629;28;20559;-83
2022/07/13 11:35:20;;;;;;;2.37;1.60;;;31.30;80.20;;;;;;5009771;28;20392;-84
2022/07/13 11:37:46;;;;;;;4.10;1.58;;;31.00;80.70;;;;;;5026694;28;20449;-83
2022/07/13 11:40:31;;;;;;;3.38;1.30;;;30.80;79.80;;;;;;5012230;28;20413;-83
2022/07/13 11:43:01;;;;;;;3.17;1.48;;;30.70;81.50;;;;;;5011950;28;20429;-84
2022/07/13 11:45:32;;;;;;;4.72;1.23;;;30.80;80.80;;;;;;5013673;28;20406;-84
2022/07/13 11:48:03;;;;;;;2.70;1.35;;;30.80;78.70;;;;;;5011198;28;20390;-84
2022/07/13 11:50:49;;;;;;;4.82;1.55;;;30.90;79.30;;;;;;5011780;28;20382;-83
2022/07/13 11:53:24;;;;;;;5.43;1.63;;;31.10;80.80;;;;;;5013037;28;20376;-82
2022/07/13 11:55:50;;;;;;;3.20;1.70;;;31.40;79.30;;;;;;5026405;28;20842;-83
2022/07/13 11:58:28;;;;;;;2.80;1.58;;;31.50;77.00;;;;;;5013320;28;20750;-83
2022/07/13 12:00:56;;;;;;;2.65;1.45;;;31.60;79.50;;;;;;5026283;28;20389;-84
2022/07/13 12:03:30;;;;;;;3.50;1.40;;;31.50;75.80;;;;;;5030627;28;20498;-83
2022/07/13 12:06:14;;;;;;;3.40;1.60;;;31.40;99.90;;;;;;5025809;28;20906;-82
2022/07/13 12:08:42;;;;;;;1.80;1.48;;;31.30;75.90;;;;;;5009881;28;20395;-83
2022/07/13 12:11:17;;;;;;;4.30;1.40;;;31.50;75.00;;;;;;5024519;28;20439;-83
2022/07/13 12:13:45;;;;;;;3.00;1.50;;;31.70;76.10;;;;;;5021348;28;20409;-84
2022/07/13 12:16:13;;;;;;;3.67;1.40;;;31.90;75.00;;;;;;5028463;28;20381;-84
2022/07/13 12:18:59;;;;;;;4.27;1.30;;;31.80;72.80;;;;;;5028243;28;20439;-84
2022/07/13 12:21:25;;;;;;;3.00;1.30;;;32.00;67.80;;;;;;5011330;28;20474;-84
2022/07/13 12:23:51;;;;;;;2.43;1.40;;;32.00;68.70;;;;;;5015717;28;20475;-84
2022/07/13 12:26:16;;;;;;;5.20;1.53;;;31.90;71.90;;;;;;5023137;28;20502;-82
2022/07/13 12:28:42;;;;;;;4.55;1.33;;;31.80;67.90;;;;;;5029943;28;20467;-84
2022/07/13 12:31:08;;;;;;;2.05;1.23;;;31.70;69.20;;;;;;5031745;28;20389;-83
2022/07/13 12:33:45;;;;;;;2.87;1.50;;;31.70;68.30;;;;;;5031578;28;20469;-84
2022/07/13 12:36:12;;;;;;;2.95;1.25;;;31.60;66.50;;;;;;5012169;28;20390;-85
2022/07/13 12:39:00;;;;;;;4.72;1.42;;;31.50;67.10;;;;;;5013351;28;20410;-83
2022/07/13 12:41:34;;;;;;;1.85;1.10;;;31.50;65.30;;;;;;5025445;28;20393;-84
2022/07/13 12:44:05;;;;;;;2.20;1.17;;;31.40;64.40;;;;;;5031427;28;20768;-84
2022/07/13 12:46:50;;;;;;;6.25;1.20;;;31.40;66.70;;;;;;5026722;28;20884;-84
2022/07/13 12:49:16;;;;;;;3.58;1.20;;;31.30;64.00;;;;;;5030963;28;20396;-84
2022/07/13 12:51:52;;;;;;;4.20;1.10;;;31.30;64.80;;;;;;5031381;28;20373;-83
2022/07/13 12:54:40;;;;;;;4.15;1.40;;;31.40;64.70;;;;;;5030237;28;20401;-83
2022/07/13 12:57:10;;;;;;;1.67;1.02;;;31.50;64.80;;;;;;5029124;28;20405;-83
2022/07/13 12:59:37;;;;;;;2.97;1.20;;;31.60;66.00;;;;;;5031794;28;20477;-84
2022/07/13 13:02:02;;;;;;;2.70;1.20;;;31.40;66.80;;;;;;5031630;28;20393;-84
2022/07/13 13:04:29;;;;;;;1.50;1.00;;;31.40;64.90;;;;;;5028798;28;20385;-83
2022/07/13 13:06:55;;;;;;;3.08;1.38;;;31.30;65.10;;;;;;5030233;28;20752;-83
2022/07/13 13:09:22;;;;;;;2.13;1.30;;;31.30;69.20;;;;;;5030548;28;20814;-84
2022/07/13 13:11:48;;;;;;;3.07;1.40;;;31.30;67.90;;;;;;5030444;28;20524;-84